ITY31P KJFK-KATL
Flight info
| Callsign | ITY31P |
|---|---|
| Flight time | 1h 59m |
| Altitude | 37000 |
| Route | RBV Q430 BYRDD J48 MOL FLASK OZZZI2 |
| Aircraft | A320/M-SDE3FGHIRWY/LB1 |
Departure
| Time | 2026-05-01 10:20 |
|---|---|
| Airport | John F. Kennedy International Airport (KJFK) |
Arrival
| Time | 2026-05-01 12:19 |
|---|---|
| Airport | Hartsfield Jackson Atlanta International Airport (KATL) |
| Time | Latitude | Longitude | Altitude | Speed | Heading |
|---|---|---|---|---|---|
| 2026-05-01 09:58 | 40.64955 | -73.78418 | 26 ft | 0 kts | 108° |
| 2026-05-01 10:10 | 40.64962 | -73.78454 | 26 ft | 3 kts | 99° |
| 2026-05-01 10:11 | 40.64964 | -73.78476 | 29 ft | 2 kts | 69° |
| 2026-05-01 10:11 | 40.64959 | -73.78489 | 27 ft | 2 kts | 20° |
| 2026-05-01 10:11 | 40.64948 | -73.78493 | 29 ft | 2 kts | 8° |
| 2026-05-01 10:11 | 40.64938 | -73.78495 | 28 ft | 2 kts | 4° |
| 2026-05-01 10:12 | 40.64934 | -73.78495 | 24 ft | 0 kts | 3° |
| 2026-05-01 10:13 | 40.64958 | -73.78493 | 26 ft | 7 kts | 2° |
| 2026-05-01 10:13 | 40.65014 | -73.78490 | 23 ft | 12 kts | 4° |
| 2026-05-01 10:13 | 40.65126 | -73.78460 | 23 ft | 21 kts | 18° |
| 2026-05-01 10:14 | 40.65196 | -73.78225 | 25 ft | 16 kts | 120° |
| 2026-05-01 10:14 | 40.65140 | -73.78099 | 23 ft | 16 kts | 121° |
| 2026-05-01 10:14 | 40.65085 | -73.77980 | 22 ft | 15 kts | 121° |
| 2026-05-01 10:14 | 40.65032 | -73.77865 | 21 ft | 15 kts | 121° |
| 2026-05-01 10:15 | 40.64980 | -73.77750 | 20 ft | 14 kts | 121° |
| 2026-05-01 10:15 | 40.64933 | -73.77645 | 21 ft | 16 kts | 121° |
| 2026-05-01 10:15 | 40.64863 | -73.77491 | 21 ft | 23 kts | 121° |
| 2026-05-01 10:15 | 40.64775 | -73.77295 | 23 ft | 26 kts | 120° |
| 2026-05-01 10:16 | 40.64663 | -73.77105 | 22 ft | 24 kts | 153° |
| 2026-05-01 10:16 | 40.64495 | -73.77092 | 22 ft | 26 kts | 183° |
| 2026-05-01 10:16 | 40.64176 | -73.77304 | 25 ft | 28 kts | 210° |
| 2026-05-01 10:17 | 40.64002 | -73.77443 | 23 ft | 31 kts | 210° |
| 2026-05-01 10:17 | 40.63609 | -73.77748 | 20 ft | 33 kts | 211° |
| 2026-05-01 10:17 | 40.63417 | -73.77901 | 24 ft | 28 kts | 211° |
| 2026-05-01 10:18 | 40.63204 | -73.78059 | 29 ft | 11 kts | 264° |
| 2026-05-01 10:18 | 40.63245 | -73.78167 | 22 ft | 15 kts | 306° |
| 2026-05-01 10:18 | 40.63265 | -73.78207 | 24 ft | 0 kts | 300° |
| 2026-05-01 10:19 | 40.63267 | -73.78212 | 23 ft | 11 kts | 300° |
| 2026-05-01 10:20 | 40.63834 | -73.79454 | 19 ft | 134 kts | 301° |
| 2026-05-01 10:20 | 40.64341 | -73.80594 | 424 ft | 145 kts | 300° |
| 2026-05-01 10:20 | 40.64701 | -73.81834 | 1033 ft | 151 kts | 271° |
| 2026-05-01 10:20 | 40.64289 | -73.83166 | 1518 ft | 174 kts | 233° |
| 2026-05-01 10:21 | 40.63385 | -73.84355 | 1808 ft | 198 kts | 229° |
| 2026-05-01 10:21 | 40.61194 | -73.87083 | 2862 ft | 225 kts | 227° |
| 2026-05-01 10:21 | 40.60054 | -73.88491 | 3722 ft | 224 kts | 227° |
| 2026-05-01 10:22 | 40.57856 | -73.91650 | 4871 ft | 253 kts | 233° |
| 2026-05-01 10:22 | 40.55545 | -73.95259 | 6604 ft | 260 kts | 232° |
| 2026-05-01 10:23 | 40.54377 | -73.97081 | 7497 ft | 261 kts | 233° |
| 2026-05-01 10:23 | 40.52017 | -74.00744 | 9254 ft | 265 kts | 233° |
| 2026-05-01 10:23 | 40.50834 | -74.02576 | 10077 ft | 267 kts | 234° |
| 2026-05-01 10:24 | 40.48269 | -74.06566 | 10708 ft | 308 kts | 233° |
| 2026-05-01 10:24 | 40.45313 | -74.11152 | 11271 ft | 342 kts | 233° |
| 2026-05-01 10:25 | 40.42190 | -74.15931 | 12723 ft | 346 kts | 233° |
| 2026-05-01 10:25 | 40.39057 | -74.20717 | 14146 ft | 350 kts | 233° |
| 2026-05-01 10:26 | 40.37466 | -74.23157 | 14773 ft | 352 kts | 233° |
| 2026-05-01 10:26 | 40.35871 | -74.25604 | 15384 ft | 355 kts | 233° |
| 2026-05-01 10:26 | 40.32644 | -74.30565 | 16598 ft | 360 kts | 234° |
| 2026-05-01 10:27 | 40.29362 | -74.35598 | 17774 ft | 366 kts | 234° |
| 2026-05-01 10:27 | 40.26017 | -74.40707 | 18850 ft | 371 kts | 234° |
| 2026-05-01 10:28 | 40.24364 | -74.43227 | 19360 ft | 372 kts | 234° |
| 2026-05-01 10:28 | 40.21291 | -74.48630 | 20334 ft | 368 kts | 246° |
| 2026-05-01 10:28 | 40.20326 | -74.51719 | 20822 ft | 366 kts | 256° |
| 2026-05-01 10:29 | 40.19557 | -74.58278 | 21738 ft | 366 kts | 265° |
| 2026-05-01 10:29 | 40.19301 | -74.61602 | 22177 ft | 368 kts | 265° |
| 2026-05-01 10:30 | 40.18779 | -74.68280 | 23020 ft | 371 kts | 265° |
| 2026-05-01 10:30 | 40.18244 | -74.74971 | 23774 ft | 374 kts | 265° |
| 2026-05-01 10:31 | 40.17697 | -74.81780 | 24382 ft | 378 kts | 265° |
| 2026-05-01 10:31 | 40.17144 | -74.88659 | 24955 ft | 382 kts | 265° |
| 2026-05-01 10:32 | 40.16582 | -74.95603 | 25507 ft | 386 kts | 265° |
| 2026-05-01 10:32 | 40.16299 | -74.99064 | 25770 ft | 388 kts | 265° |
| 2026-05-01 10:32 | 40.15719 | -75.06095 | 26287 ft | 392 kts | 265° |
| 2026-05-01 10:33 | 40.15135 | -75.13191 | 26856 ft | 393 kts | 265° |
| 2026-05-01 10:33 | 40.14542 | -75.20302 | 27372 ft | 394 kts | 265° |
| 2026-05-01 10:34 | 40.14242 | -75.23846 | 27693 ft | 393 kts | 265° |
| 2026-05-01 10:34 | 40.13941 | -75.27402 | 28017 ft | 392 kts | 265° |
| 2026-05-01 10:34 | 40.13646 | -75.30886 | 28338 ft | 392 kts | 265° |
| 2026-05-01 10:35 | 40.13048 | -75.37949 | 28987 ft | 391 kts | 264° |
| 2026-05-01 10:35 | 40.12744 | -75.41481 | 29306 ft | 390 kts | 264° |
| 2026-05-01 10:35 | 40.12445 | -75.44948 | 29705 ft | 388 kts | 265° |
| 2026-05-01 10:35 | 40.12142 | -75.48479 | 30123 ft | 386 kts | 265° |
| 2026-05-01 10:36 | 40.11543 | -75.55436 | 30707 ft | 384 kts | 265° |
| 2026-05-01 10:36 | 40.11243 | -75.58897 | 30980 ft | 384 kts | 265° |
| 2026-05-01 10:36 | 40.10941 | -75.62352 | 31257 ft | 383 kts | 265° |
| 2026-05-01 10:37 | 40.10643 | -75.65762 | 31527 ft | 382 kts | 265° |
| 2026-05-01 10:37 | 40.10032 | -75.72669 | 32077 ft | 382 kts | 265° |
| 2026-05-01 10:37 | 40.09728 | -75.76102 | 32354 ft | 381 kts | 265° |
| 2026-05-01 10:38 | 40.09337 | -75.79519 | 32649 ft | 382 kts | 259° |
| 2026-05-01 10:38 | 40.08501 | -75.82818 | 32943 ft | 385 kts | 250° |
| 2026-05-01 10:38 | 40.07192 | -75.85896 | 33220 ft | 390 kts | 242° |
| 2026-05-01 10:38 | 40.05705 | -75.88804 | 33494 ft | 390 kts | 242° |
| 2026-05-01 10:39 | 40.04209 | -75.91745 | 33721 ft | 389 kts | 243° |
| 2026-05-01 10:39 | 40.02717 | -75.94684 | 34097 ft | 386 kts | 243° |
| 2026-05-01 10:39 | 40.01241 | -75.97596 | 34357 ft | 384 kts | 243° |
| 2026-05-01 10:39 | 39.99772 | -76.00491 | 34586 ft | 384 kts | 243° |
| 2026-05-01 10:40 | 39.98288 | -76.03408 | 34796 ft | 385 kts | 243° |
| 2026-05-01 10:40 | 39.96809 | -76.06312 | 34984 ft | 385 kts | 242° |
| 2026-05-01 10:40 | 39.95323 | -76.09227 | 35167 ft | 386 kts | 242° |
| 2026-05-01 10:40 | 39.93854 | -76.12107 | 35339 ft | 386 kts | 242° |
| 2026-05-01 10:41 | 39.92368 | -76.15021 | 35527 ft | 387 kts | 242° |
| 2026-05-01 10:41 | 39.90878 | -76.17943 | 35684 ft | 388 kts | 242° |
| 2026-05-01 10:41 | 39.87887 | -76.23803 | 36009 ft | 389 kts | 242° |
| 2026-05-01 10:42 | 39.86384 | -76.26743 | 36168 ft | 390 kts | 242° |
| 2026-05-01 10:42 | 39.84880 | -76.29679 | 36316 ft | 390 kts | 242° |
| 2026-05-01 10:42 | 39.83369 | -76.32616 | 36461 ft | 391 kts | 242° |
| 2026-05-01 10:42 | 39.81855 | -76.35552 | 36608 ft | 391 kts | 242° |
| 2026-05-01 10:43 | 39.80339 | -76.38495 | 36759 ft | 392 kts | 242° |
| 2026-05-01 10:43 | 39.78844 | -76.41397 | 36921 ft | 392 kts | 242° |
| 2026-05-01 10:43 | 39.77326 | -76.44341 | 37026 ft | 393 kts | 242° |
| 2026-05-01 10:44 | 39.74263 | -76.50287 | 37043 ft | 398 kts | 242° |
| 2026-05-01 10:44 | 39.71170 | -76.56266 | 37039 ft | 399 kts | 242° |
| 2026-05-01 10:45 | 39.68092 | -76.62206 | 37044 ft | 398 kts | 242° |
| 2026-05-01 10:45 | 39.65007 | -76.68142 | 37044 ft | 397 kts | 242° |
| 2026-05-01 10:46 | 39.61913 | -76.74082 | 37052 ft | 397 kts | 242° |
| 2026-05-01 10:46 | 39.58829 | -76.80009 | 37061 ft | 397 kts | 242° |
| 2026-05-01 10:47 | 39.55738 | -76.85935 | 37065 ft | 397 kts | 242° |
| 2026-05-01 10:47 | 39.52658 | -76.91816 | 37075 ft | 397 kts | 242° |
| 2026-05-01 10:48 | 39.49424 | -76.97642 | 37050 ft | 403 kts | 234° |
| 2026-05-01 10:48 | 39.45133 | -77.02472 | 37076 ft | 411 kts | 228° |
| 2026-05-01 10:49 | 39.40704 | -77.07126 | 37085 ft | 410 kts | 228° |
| 2026-05-01 10:49 | 39.36312 | -77.11740 | 37092 ft | 409 kts | 228° |
| 2026-05-01 10:50 | 39.31895 | -77.16378 | 37088 ft | 409 kts | 228° |
| 2026-05-01 10:50 | 39.27486 | -77.21002 | 37073 ft | 408 kts | 228° |
| 2026-05-01 10:51 | 39.23086 | -77.25599 | 37098 ft | 407 kts | 229° |
| 2026-05-01 10:51 | 39.18719 | -77.30154 | 37093 ft | 406 kts | 229° |
| 2026-05-01 10:52 | 39.14338 | -77.34720 | 37090 ft | 405 kts | 229° |
| 2026-05-01 10:52 | 39.09960 | -77.39272 | 37052 ft | 404 kts | 229° |
| 2026-05-01 10:53 | 39.05589 | -77.43811 | 37081 ft | 403 kts | 229° |
| 2026-05-01 10:53 | 39.01242 | -77.48335 | 37082 ft | 402 kts | 229° |
| 2026-05-01 10:54 | 38.96916 | -77.52820 | 37081 ft | 402 kts | 229° |
| 2026-05-01 10:54 | 38.92560 | -77.57313 | 37089 ft | 402 kts | 229° |
| 2026-05-01 10:55 | 38.88204 | -77.61814 | 37061 ft | 401 kts | 230° |
| 2026-05-01 10:55 | 38.83860 | -77.66286 | 37083 ft | 401 kts | 230° |
| 2026-05-01 10:56 | 38.79539 | -77.70720 | 37085 ft | 400 kts | 230° |
| 2026-05-01 10:56 | 38.75199 | -77.75184 | 37089 ft | 400 kts | 230° |
| 2026-05-01 10:57 | 38.70864 | -77.79640 | 37029 ft | 400 kts | 230° |
| 2026-05-01 10:57 | 38.66524 | -77.84081 | 37065 ft | 399 kts | 230° |
| 2026-05-01 10:58 | 38.62691 | -77.88950 | 37091 ft | 379 kts | 243° |
| 2026-05-01 10:58 | 38.59564 | -77.94316 | 37094 ft | 379 kts | 243° |
| 2026-05-01 10:59 | 38.56406 | -77.99696 | 37111 ft | 378 kts | 243° |
| 2026-05-01 10:59 | 38.53251 | -78.05066 | 37099 ft | 378 kts | 243° |
| 2026-05-01 11:00 | 38.50117 | -78.10394 | 37057 ft | 377 kts | 243° |
| 2026-05-01 11:00 | 38.46969 | -78.15724 | 37074 ft | 376 kts | 243° |
| 2026-05-01 11:01 | 38.43827 | -78.21050 | 37083 ft | 375 kts | 243° |
| 2026-05-01 11:01 | 38.40684 | -78.26354 | 37084 ft | 375 kts | 243° |
| 2026-05-01 11:02 | 38.37541 | -78.31650 | 37085 ft | 375 kts | 243° |
| 2026-05-01 11:02 | 38.34415 | -78.36905 | 37080 ft | 375 kts | 243° |
| 2026-05-01 11:03 | 38.31272 | -78.42186 | 37010 ft | 374 kts | 243° |
| 2026-05-01 11:03 | 38.28145 | -78.47417 | 37066 ft | 370 kts | 243° |
| 2026-05-01 11:04 | 38.25039 | -78.52627 | 37079 ft | 369 kts | 243° |
| 2026-05-01 11:04 | 38.21935 | -78.57822 | 37088 ft | 369 kts | 243° |
| 2026-05-01 11:05 | 38.18857 | -78.62968 | 37083 ft | 368 kts | 243° |
| 2026-05-01 11:05 | 38.15753 | -78.68150 | 37092 ft | 369 kts | 243° |
| 2026-05-01 11:06 | 38.12637 | -78.73333 | 37084 ft | 368 kts | 243° |
| 2026-05-01 11:06 | 38.09527 | -78.78502 | 37059 ft | 368 kts | 243° |
| 2026-05-01 11:07 | 38.04895 | -78.86188 | 37089 ft | 367 kts | 243° |
| 2026-05-01 11:07 | 38.01790 | -78.91324 | 37092 ft | 367 kts | 243° |
| 2026-05-01 11:08 | 37.98686 | -78.96454 | 37089 ft | 366 kts | 243° |
| 2026-05-01 11:09 | 37.94050 | -79.04099 | 37086 ft | 367 kts | 243° |
| 2026-05-01 11:09 | 37.90942 | -79.09210 | 37122 ft | 366 kts | 243° |
| 2026-05-01 11:10 | 37.85939 | -79.16636 | 37140 ft | 372 kts | 239° |
| 2026-05-01 11:10 | 37.82398 | -79.21425 | 37145 ft | 373 kts | 239° |
| 2026-05-01 11:11 | 37.78909 | -79.26189 | 37154 ft | 371 kts | 239° |
| 2026-05-01 11:11 | 37.75432 | -79.31017 | 37155 ft | 371 kts | 239° |
| 2026-05-01 11:12 | 37.71957 | -79.35844 | 37156 ft | 371 kts | 239° |
| 2026-05-01 11:12 | 37.68490 | -79.40646 | 37121 ft | 370 kts | 240° |
| 2026-05-01 11:13 | 37.65021 | -79.45450 | 37143 ft | 370 kts | 240° |
| 2026-05-01 11:13 | 37.61579 | -79.50200 | 37134 ft | 369 kts | 240° |
| 2026-05-01 11:14 | 37.58112 | -79.54968 | 37124 ft | 369 kts | 240° |
| 2026-05-01 11:14 | 37.54650 | -79.59737 | 37104 ft | 368 kts | 240° |
| 2026-05-01 11:15 | 37.51183 | -79.64510 | 37091 ft | 368 kts | 240° |
| 2026-05-01 11:15 | 37.47743 | -79.69224 | 37062 ft | 368 kts | 240° |
| 2026-05-01 11:16 | 37.44272 | -79.73968 | 37076 ft | 368 kts | 240° |
| 2026-05-01 11:16 | 37.40804 | -79.78704 | 37087 ft | 368 kts | 240° |
| 2026-05-01 11:17 | 37.37344 | -79.83439 | 37106 ft | 367 kts | 240° |
| 2026-05-01 11:17 | 37.33912 | -79.88127 | 37111 ft | 367 kts | 240° |
| 2026-05-01 11:18 | 37.30455 | -79.92841 | 37110 ft | 367 kts | 240° |
| 2026-05-01 11:18 | 37.26998 | -79.97536 | 37065 ft | 366 kts | 240° |
| 2026-05-01 11:19 | 37.23536 | -80.02246 | 37059 ft | 367 kts | 240° |
| 2026-05-01 11:19 | 37.20093 | -80.06915 | 37074 ft | 367 kts | 240° |
| 2026-05-01 11:20 | 37.16614 | -80.11617 | 37085 ft | 367 kts | 240° |
| 2026-05-01 11:20 | 37.13142 | -80.16318 | 37090 ft | 367 kts | 240° |
| 2026-05-01 11:21 | 37.09670 | -80.20997 | 37107 ft | 366 kts | 240° |
| 2026-05-01 11:21 | 37.06197 | -80.25674 | 37040 ft | 366 kts | 240° |
| 2026-05-01 11:22 | 37.02753 | -80.30314 | 37058 ft | 367 kts | 240° |
| 2026-05-01 11:22 | 36.99232 | -80.34955 | 37064 ft | 369 kts | 239° |
| 2026-05-01 11:23 | 36.95605 | -80.39529 | 37067 ft | 370 kts | 238° |
| 2026-05-01 11:23 | 36.91961 | -80.44090 | 37072 ft | 371 kts | 238° |
| 2026-05-01 11:24 | 36.88366 | -80.48630 | 37063 ft | 370 kts | 238° |
| 2026-05-01 11:25 | 36.82933 | -80.55493 | 37042 ft | 371 kts | 238° |
| 2026-05-01 11:25 | 36.77518 | -80.62329 | 37052 ft | 371 kts | 238° |
| 2026-05-01 11:26 | 36.72074 | -80.69184 | 37066 ft | 371 kts | 238° |
| 2026-05-01 11:27 | 36.68447 | -80.73742 | 37072 ft | 371 kts | 238° |
| 2026-05-01 11:27 | 36.64809 | -80.78301 | 37073 ft | 371 kts | 238° |
| 2026-05-01 11:28 | 36.61201 | -80.82818 | 37035 ft | 370 kts | 238° |
| 2026-05-01 11:28 | 36.57570 | -80.87357 | 37050 ft | 370 kts | 238° |
| 2026-05-01 11:29 | 36.52121 | -80.94150 | 37050 ft | 369 kts | 238° |
| 2026-05-01 11:30 | 36.46712 | -81.00909 | 37085 ft | 369 kts | 238° |
| 2026-05-01 11:30 | 36.43081 | -81.05422 | 37102 ft | 369 kts | 238° |
| 2026-05-01 11:31 | 36.39452 | -81.09929 | 37080 ft | 368 kts | 237° |
| 2026-05-01 11:31 | 36.35827 | -81.14417 | 37116 ft | 368 kts | 237° |
| 2026-05-01 11:32 | 36.32201 | -81.18904 | 37128 ft | 368 kts | 237° |
| 2026-05-01 11:32 | 36.28600 | -81.23358 | 37133 ft | 368 kts | 237° |
| 2026-05-01 11:33 | 36.24979 | -81.27840 | 37121 ft | 368 kts | 237° |
| 2026-05-01 11:33 | 36.21361 | -81.32303 | 37111 ft | 367 kts | 237° |
| 2026-05-01 11:34 | 36.17740 | -81.36760 | 37033 ft | 367 kts | 237° |
| 2026-05-01 11:34 | 36.14142 | -81.41184 | 37042 ft | 367 kts | 237° |
| 2026-05-01 11:35 | 36.10515 | -81.45640 | 37034 ft | 368 kts | 237° |
| 2026-05-01 11:35 | 36.06888 | -81.50089 | 37024 ft | 368 kts | 237° |
| 2026-05-01 11:36 | 36.03254 | -81.54533 | 37021 ft | 367 kts | 237° |
| 2026-05-01 11:36 | 35.99653 | -81.58940 | 37025 ft | 367 kts | 237° |
| 2026-05-01 11:37 | 35.96031 | -81.63370 | 37020 ft | 366 kts | 237° |
| 2026-05-01 11:37 | 35.92406 | -81.67797 | 36985 ft | 366 kts | 237° |
| 2026-05-01 11:38 | 35.88788 | -81.72212 | 37003 ft | 366 kts | 237° |
| 2026-05-01 11:38 | 35.85189 | -81.76593 | 37094 ft | 366 kts | 237° |
| 2026-05-01 11:39 | 35.81566 | -81.80991 | 37091 ft | 365 kts | 237° |
| 2026-05-01 11:39 | 35.77945 | -81.85380 | 37072 ft | 365 kts | 237° |
| 2026-05-01 11:40 | 35.74320 | -81.89770 | 37058 ft | 365 kts | 237° |
| 2026-05-01 11:40 | 35.70701 | -81.94151 | 37035 ft | 365 kts | 237° |
| 2026-05-01 11:41 | 35.67101 | -81.98506 | 37043 ft | 365 kts | 237° |
| 2026-05-01 11:41 | 35.63478 | -82.02876 | 37050 ft | 365 kts | 237° |
| 2026-05-01 11:42 | 35.59856 | -82.07242 | 37054 ft | 365 kts | 237° |
| 2026-05-01 11:42 | 35.56231 | -82.11598 | 37050 ft | 364 kts | 236° |
| 2026-05-01 11:43 | 35.52634 | -82.15918 | 37049 ft | 365 kts | 237° |
| 2026-05-01 11:43 | 35.49012 | -82.20277 | 37008 ft | 365 kts | 237° |
| 2026-05-01 11:44 | 35.43563 | -82.26806 | 37007 ft | 365 kts | 237° |
| 2026-05-01 11:44 | 35.39918 | -82.31154 | 37005 ft | 366 kts | 237° |
| 2026-05-01 11:45 | 35.36294 | -82.35484 | 37003 ft | 366 kts | 237° |
| 2026-05-01 11:45 | 35.32648 | -82.39843 | 37002 ft | 366 kts | 237° |
| 2026-05-01 11:46 | 35.28996 | -82.44195 | 37004 ft | 366 kts | 236° |
| 2026-05-01 11:46 | 35.25963 | -82.47806 | 36980 ft | 366 kts | 237° |
| 2026-05-01 11:47 | 35.21717 | -82.52873 | 37013 ft | 367 kts | 236° |
| 2026-05-01 11:47 | 35.18054 | -82.57224 | 37009 ft | 368 kts | 236° |
| 2026-05-01 11:48 | 35.15000 | -82.60841 | 37002 ft | 368 kts | 236° |
| 2026-05-01 11:48 | 35.11322 | -82.65189 | 37012 ft | 368 kts | 236° |
| 2026-05-01 11:49 | 35.07658 | -82.69526 | 37010 ft | 366 kts | 236° |
| 2026-05-01 11:49 | 35.03393 | -82.74570 | 37024 ft | 368 kts | 236° |
| 2026-05-01 11:50 | 35.00299 | -82.78213 | 36994 ft | 370 kts | 236° |
| 2026-05-01 11:50 | 34.96615 | -82.82540 | 37018 ft | 371 kts | 236° |
| 2026-05-01 11:51 | 34.92900 | -82.86908 | 37035 ft | 371 kts | 236° |
| 2026-05-01 11:51 | 34.89188 | -82.91264 | 37040 ft | 371 kts | 236° |
| 2026-05-01 11:52 | 34.85476 | -82.95627 | 37040 ft | 371 kts | 236° |
| 2026-05-01 11:52 | 34.81792 | -82.99950 | 37042 ft | 371 kts | 236° |
| 2026-05-01 11:53 | 34.78077 | -83.04299 | 37005 ft | 371 kts | 236° |
| 2026-05-01 11:53 | 34.74360 | -83.08639 | 37013 ft | 371 kts | 236° |
| 2026-05-01 11:54 | 34.70637 | -83.12977 | 37035 ft | 371 kts | 236° |
| 2026-05-01 11:54 | 34.66916 | -83.17318 | 37043 ft | 371 kts | 236° |
| 2026-05-01 11:55 | 34.63221 | -83.21619 | 37061 ft | 370 kts | 236° |
| 2026-05-01 11:55 | 34.59496 | -83.25951 | 37064 ft | 370 kts | 236° |
| 2026-05-01 11:56 | 34.55779 | -83.30275 | 37065 ft | 370 kts | 236° |
| 2026-05-01 11:56 | 34.52073 | -83.34557 | 37020 ft | 371 kts | 235° |
| 2026-05-01 11:57 | 34.48335 | -83.38878 | 37024 ft | 371 kts | 236° |
| 2026-05-01 11:57 | 34.44602 | -83.43199 | 36989 ft | 371 kts | 236° |
| 2026-05-01 11:58 | 34.40872 | -83.47519 | 37008 ft | 371 kts | 236° |
| 2026-05-01 11:59 | 34.35279 | -83.53969 | 37033 ft | 372 kts | 235° |
| 2026-05-01 11:59 | 34.31535 | -83.58274 | 36888 ft | 371 kts | 235° |
| 2026-05-01 12:00 | 34.27799 | -83.62574 | 36337 ft | 373 kts | 235° |
| 2026-05-01 12:00 | 34.25915 | -83.64741 | 36087 ft | 374 kts | 235° |
| 2026-05-01 12:00 | 34.22128 | -83.69073 | 35593 ft | 376 kts | 234° |
| 2026-05-01 12:01 | 34.20228 | -83.71245 | 35342 ft | 377 kts | 234° |
| 2026-05-01 12:01 | 34.18354 | -83.73395 | 35123 ft | 377 kts | 234° |
| 2026-05-01 12:01 | 34.16441 | -83.75588 | 34883 ft | 378 kts | 234° |
| 2026-05-01 12:01 | 34.14538 | -83.77769 | 34648 ft | 379 kts | 234° |
| 2026-05-01 12:02 | 34.12624 | -83.79957 | 34416 ft | 379 kts | 234° |
| 2026-05-01 12:02 | 34.10708 | -83.82147 | 34177 ft | 380 kts | 234° |
| 2026-05-01 12:02 | 34.08786 | -83.84335 | 33525 ft | 383 kts | 233° |
| 2026-05-01 12:02 | 34.06798 | -83.86529 | 32504 ft | 388 kts | 232° |
| 2026-05-01 12:03 | 34.04779 | -83.88700 | 31465 ft | 392 kts | 232° |
| 2026-05-01 12:03 | 34.02748 | -83.90855 | 30503 ft | 396 kts | 231° |
| 2026-05-01 12:03 | 34.00668 | -83.93055 | 29433 ft | 399 kts | 231° |
| 2026-05-01 12:03 | 33.98576 | -83.95268 | 28306 ft | 402 kts | 230° |
| 2026-05-01 12:04 | 33.96343 | -83.97350 | 27205 ft | 413 kts | 223° |
| 2026-05-01 12:04 | 33.93869 | -83.99120 | 26117 ft | 407 kts | 220° |
| 2026-05-01 12:04 | 33.91447 | -84.00819 | 25111 ft | 403 kts | 220° |
| 2026-05-01 12:04 | 33.89023 | -84.02543 | 24132 ft | 406 kts | 219° |
| 2026-05-01 12:05 | 33.86623 | -84.04264 | 23106 ft | 404 kts | 219° |
| 2026-05-01 12:05 | 33.81808 | -84.07699 | 20909 ft | 396 kts | 219° |
| 2026-05-01 12:05 | 33.79488 | -84.09350 | 19879 ft | 389 kts | 220° |
| 2026-05-01 12:06 | 33.77372 | -84.11264 | 18922 ft | 374 kts | 231° |
| 2026-05-01 12:06 | 33.75689 | -84.13572 | 17993 ft | 363 kts | 240° |
| 2026-05-01 12:06 | 33.74452 | -84.16186 | 17203 ft | 357 kts | 250° |
| 2026-05-01 12:06 | 33.73659 | -84.18986 | 16492 ft | 354 kts | 258° |
| 2026-05-01 12:07 | 33.73320 | -84.21901 | 15803 ft | 353 kts | 268° |
| 2026-05-01 12:07 | 33.73314 | -84.24867 | 15122 ft | 354 kts | 270° |
| 2026-05-01 12:07 | 33.73318 | -84.27826 | 14466 ft | 358 kts | 269° |
| 2026-05-01 12:07 | 33.73317 | -84.30781 | 13819 ft | 357 kts | 270° |
| 2026-05-01 12:08 | 33.73312 | -84.33764 | 13144 ft | 356 kts | 270° |
| 2026-05-01 12:08 | 33.73306 | -84.36728 | 12527 ft | 355 kts | 270° |
| 2026-05-01 12:08 | 33.73303 | -84.39690 | 11948 ft | 353 kts | 270° |
| 2026-05-01 12:08 | 33.73301 | -84.42627 | 11375 ft | 350 kts | 270° |
| 2026-05-01 12:09 | 33.73302 | -84.45480 | 11224 ft | 333 kts | 270° |
| 2026-05-01 12:09 | 33.73301 | -84.48199 | 11098 ft | 318 kts | 270° |
| 2026-05-01 12:09 | 33.73299 | -84.50787 | 10973 ft | 304 kts | 270° |
| 2026-05-01 12:09 | 33.73298 | -84.53278 | 10849 ft | 291 kts | 270° |
| 2026-05-01 12:10 | 33.73295 | -84.55662 | 10725 ft | 280 kts | 270° |
| 2026-05-01 12:10 | 33.73292 | -84.60200 | 10257 ft | 270 kts | 270° |
| 2026-05-01 12:10 | 33.73289 | -84.62452 | 10017 ft | 269 kts | 270° |
| 2026-05-01 12:11 | 33.73279 | -84.66937 | 9745 ft | 268 kts | 270° |
| 2026-05-01 12:11 | 33.73271 | -84.69144 | 9610 ft | 260 kts | 270° |
| 2026-05-01 12:11 | 33.73264 | -84.71273 | 9475 ft | 249 kts | 270° |
| 2026-05-01 12:12 | 33.73260 | -84.73330 | 9150 ft | 246 kts | 270° |
| 2026-05-01 12:12 | 33.73187 | -84.75398 | 8481 ft | 257 kts | 259° |
| 2026-05-01 12:12 | 33.72468 | -84.77396 | 7769 ft | 268 kts | 233° |
| 2026-05-01 12:12 | 33.71014 | -84.78787 | 7077 ft | 273 kts | 205° |
| 2026-05-01 12:13 | 33.69152 | -84.79213 | 6563 ft | 270 kts | 177° |
| 2026-05-01 12:13 | 33.67413 | -84.78658 | 6457 ft | 250 kts | 154° |
| 2026-05-01 12:13 | 33.66071 | -84.77437 | 6331 ft | 241 kts | 131° |
| 2026-05-01 12:13 | 33.65195 | -84.75742 | 6115 ft | 239 kts | 110° |
| 2026-05-01 12:14 | 33.64893 | -84.73816 | 5847 ft | 238 kts | 89° |
| 2026-05-01 12:14 | 33.64898 | -84.71837 | 5541 ft | 235 kts | 89° |
| 2026-05-01 12:14 | 33.64909 | -84.69884 | 5237 ft | 234 kts | 89° |
| 2026-05-01 12:14 | 33.64915 | -84.67934 | 4934 ft | 233 kts | 89° |
| 2026-05-01 12:15 | 33.64919 | -84.66009 | 4631 ft | 226 kts | 90° |
| 2026-05-01 12:15 | 33.64923 | -84.64171 | 4332 ft | 215 kts | 90° |
| 2026-05-01 12:15 | 33.64927 | -84.62424 | 4056 ft | 206 kts | 90° |
| 2026-05-01 12:15 | 33.64931 | -84.60722 | 3789 ft | 201 kts | 90° |
| 2026-05-01 12:16 | 33.64934 | -84.59061 | 3528 ft | 198 kts | 90° |
| 2026-05-01 12:16 | 33.64937 | -84.57454 | 3305 ft | 186 kts | 90° |
| 2026-05-01 12:16 | 33.64940 | -84.55975 | 3045 ft | 174 kts | 90° |
| 2026-05-01 12:16 | 33.64942 | -84.54590 | 2835 ft | 156 kts | 90° |
| 2026-05-01 12:17 | 33.64944 | -84.53363 | 2631 ft | 140 kts | 90° |
| 2026-05-01 12:17 | 33.64945 | -84.52220 | 2447 ft | 135 kts | 90° |
| 2026-05-01 12:17 | 33.64946 | -84.51101 | 2263 ft | 133 kts | 90° |
| 2026-05-01 12:17 | 33.64947 | -84.49990 | 2085 ft | 132 kts | 89° |
| 2026-05-01 12:18 | 33.64948 | -84.48887 | 1901 ft | 133 kts | 89° |
| 2026-05-01 12:18 | 33.64945 | -84.47763 | 1683 ft | 136 kts | 89° |
| 2026-05-01 12:18 | 33.64940 | -84.46615 | 1493 ft | 140 kts | 89° |
| 2026-05-01 12:18 | 33.64946 | -84.45450 | 1366 ft | 143 kts | 88° |
| 2026-05-01 12:19 | 33.64957 | -84.44258 | 1169 ft | 143 kts | 89° |
| 2026-05-01 12:19 | 33.64958 | -84.43066 | 1051 ft | 141 kts | 89° |
| 2026-05-01 12:19 | 33.64959 | -84.42036 | 1036 ft | 92 kts | 90° |
| 2026-05-01 12:19 | 33.64958 | -84.41636 | 1035 ft | 4 kts | 90° |
| 2026-05-01 12:20 | 33.64958 | -84.41609 | 1035 ft | 11 kts | 90° |
| 2026-05-01 12:20 | 33.64957 | -84.41475 | 1035 ft | 16 kts | 90° |
| 2026-05-01 12:20 | 33.64957 | -84.41343 | 1035 ft | 15 kts | 90° |
| 2026-05-01 12:20 | 33.64956 | -84.41230 | 1035 ft | 13 kts | 90° |
| 2026-05-01 12:21 | 33.64951 | -84.41131 | 1036 ft | 11 kts | 102° |
| 2026-05-01 12:21 | 33.64907 | -84.41070 | 1036 ft | 9 kts | 162° |
| 2026-05-01 12:21 | 33.64856 | -84.41093 | 1036 ft | 7 kts | 231° |
| 2026-05-01 12:21 | 33.64845 | -84.41148 | 1036 ft | 7 kts | 264° |
| 2026-05-01 12:22 | 33.64833 | -84.41217 | 1036 ft | 13 kts | 249° |
| 2026-05-01 12:22 | 33.64792 | -84.41360 | 1036 ft | 23 kts | 263° |
| 2026-05-01 12:22 | 33.64791 | -84.41561 | 1036 ft | 25 kts | 269° |
| 2026-05-01 12:22 | 33.64790 | -84.41773 | 1036 ft | 23 kts | 270° |
| 2026-05-01 12:23 | 33.64791 | -84.41972 | 1035 ft | 25 kts | 269° |
| 2026-05-01 12:23 | 33.64791 | -84.42179 | 1035 ft | 24 kts | 270° |
| 2026-05-01 12:23 | 33.64746 | -84.42332 | 1034 ft | 19 kts | 200° |
| 2026-05-01 12:23 | 33.64614 | -84.42339 | 1034 ft | 20 kts | 180° |
| 2026-05-01 12:24 | 33.64541 | -84.42443 | 1035 ft | 18 kts | 267° |
| 2026-05-01 12:24 | 33.64543 | -84.42596 | 1035 ft | 19 kts | 270° |
| 2026-05-01 12:24 | 33.64532 | -84.42738 | 1035 ft | 13 kts | 242° |
| 2026-05-01 12:24 | 33.64460 | -84.42788 | 1035 ft | 12 kts | 212° |
| 2026-05-01 12:25 | 33.64386 | -84.42809 | 1035 ft | 10 kts | 180° |
| 2026-05-01 12:25 | 33.64261 | -84.42805 | 1035 ft | 8 kts | 162° |
| 2026-05-01 12:25 | 33.64245 | -84.42764 | 1035 ft | 5 kts | 84° |
| 2026-05-01 12:26 | 33.64247 | -84.42725 | 1035 ft | 4 kts | 89° |
| 2026-05-01 12:26 | 33.64247 | -84.42667 | 1035 ft | 3 kts | 91° |
| 2026-05-01 12:26 | 33.64247 | -84.42647 | 1035 ft | 2 kts | 90° |
| 2026-05-01 12:27 | 33.64247 | -84.42635 | 1035 ft | 1 kts | 89° |
| 2026-05-01 12:27 | 33.64247 | -84.42621 | 1035 ft | 0 kts | 89° |